Time;durP1;ratioP1;P1;durP2;ratioP2;P2;SDS_P1;SDS_P2;PMS_P1;PMS_P2;Temp;Humidity;BMP_temperature;BMP_pressure;BME280_temperature;BME280_humidity;BME280_pressure;Samples;Min_cycle;Max_cycle;Signal;HPM_P1;HPM_P2
2023/05/23 00:01:30;;;;;;;10.55;8.38;;;;;;;13.23;100.00;64348.31;5072552;28;20189;-56
2023/05/23 00:03:56;;;;;;;10.13;7.72;;;;;;;13.18;100.00;64340.28;5072844;28;20219;-56
2023/05/23 00:06:22;;;;;;;10.30;7.70;;;;;;;12.94;100.00;64308.88;5072803;28;20189;-56
2023/05/23 00:08:48;;;;;;;7.77;6.93;;;;;;;12.86;100.00;64307.13;5072736;28;20193;-56
2023/05/23 00:11:14;;;;;;;10.53;8.07;;;;;;;13.00;100.00;64320.53;5071530;28;20185;-56
2023/05/23 00:13:40;;;;;;;8.73;7.00;;;;;;;13.00;100.00;64317.44;5072494;28;20287;-56
2023/05/23 00:16:09;;;;;;;8.18;6.60;;;;;;;12.97;100.00;64314.16;5072515;28;20193;-57
2023/05/23 00:18:35;;;;;;;9.10;7.18;;;;;;;12.93;100.00;64312.81;5072264;28;20314;-56
2023/05/23 00:21:01;;;;;;;8.00;7.13;;;;;;;13.01;100.00;64318.53;5072453;28;20196;-57
2023/05/23 00:23:28;;;;;;;7.80;5.85;;;;;;;13.06;100.00;64324.03;5072517;28;20208;-57
2023/05/23 00:25:57;;;;;;;8.33;6.40;;;;;;;13.06;100.00;64324.59;5072456;28;20207;-57
2023/05/23 00:28:22;;;;;;;7.57;6.50;;;;;;;13.03;100.00;64323.25;5072232;28;20775;-56
2023/05/23 00:30:48;;;;;;;7.78;6.47;;;;;;;12.99;100.00;64316.88;5072195;28;20334;-57
2023/05/23 00:33:15;;;;;;;8.45;6.13;;;;;;;12.80;100.00;64298.03;5071985;28;20205;-57
2023/05/23 00:35:41;;;;;;;7.73;5.63;;;;;;;12.73;100.00;64287.81;5072235;28;20193;-57
2023/05/23 00:38:06;;;;;;;6.67;5.27;;;;;;;12.76;100.00;64291.66;5072002;28;20216;-57
2023/05/23 00:40:33;;;;;;;8.63;5.20;;;;;;;12.78;100.00;64295.81;5072019;28;20740;-56
2023/05/23 00:42:59;;;;;;;6.37;4.87;;;;;;;12.86;100.00;64304.59;5071830;28;20189;-58
2023/05/23 00:45:25;;;;;;;6.20;5.00;;;;;;;12.92;100.00;64311.75;5072132;28;20193;-57
2023/05/23 00:47:52;;;;;;;7.78;5.82;;;;;;;12.90;100.00;64309.00;5072070;28;20200;-56
2023/05/23 00:50:18;;;;;;;5.18;4.68;;;;;;;12.92;100.00;64314.28;5072138;28;20661;-58
2023/05/23 00:52:46;;;;;;;6.70;5.10;;;;;;;13.02;100.00;64319.63;5071960;28;20232;-56
2023/05/23 00:55:13;;;;;;;5.65;4.85;;;;;;;13.22;100.00;64342.16;5071866;28;20180;-57
2023/05/23 00:57:40;;;;;;;5.68;4.60;;;;;;;13.09;100.00;64330.41;5071667;28;20189;-56
2023/05/23 01:00:10;;;;;;;6.30;4.47;;;;;;;12.96;100.00;64316.13;5071494;28;20221;-57
2023/05/23 01:02:43;;;;;;;6.38;4.78;;;;;;;12.95;100.00;64315.03;5071628;28;20665;-56
2023/05/23 01:05:16;;;;;;;5.60;4.87;;;;;;;13.07;100.00;64325.69;5071880;28;20280;-57
2023/05/23 01:07:46;;;;;;;7.07;4.93;;;;;;;13.04;100.00;64324.38;5072132;28;20627;-56
2023/05/23 01:10:13;;;;;;;5.20;4.70;;;;;;;12.96;100.00;64315.56;5071813;28;20197;-57
2023/05/23 01:12:45;;;;;;;7.35;4.55;;;;;;;12.96;100.00;64313.03;5071516;28;20180;-57
2023/05/23 01:15:16;;;;;;;8.98;4.07;;;;;;;13.02;100.00;64322.72;5071459;28;20199;-56
2023/05/23 01:18:13;;;;;;;6.37;4.80;;;;;;;12.85;100.00;64301.53;5071571;28;20267;-57
2023/05/23 01:20:56;;;;;;;5.35;4.20;;;;;;;12.76;100.00;64294.19;5071323;28;20274;-57
2023/05/23 01:23:40;;;;;;;5.63;4.28;;;;;;;12.60;100.00;64276.63;5071177;28;20257;-56
2023/05/23 01:26:25;;;;;;;4.47;4.07;;;;;;;12.73;100.00;64290.34;5071254;28;20249;-56
2023/05/23 01:28:55;;;;;;;5.78;3.80;;;;;;;12.77;100.00;64295.28;5071070;28;20295;-56
2023/05/23 01:31:23;;;;;;;5.43;3.95;;;;;;;12.64;100.00;64278.50;5071282;28;20208;-56
2023/05/23 01:33:52;;;;;;;5.20;3.83;;;;;;;12.70;100.00;64287.06;5071533;28;20745;-56
2023/05/23 01:36:18;;;;;;;4.10;3.70;;;;;;;12.70;100.00;64287.59;5071233;28;20219;-57
2023/05/23 01:38:43;;;;;;;6.40;3.88;;;;;;;12.71;100.00;64288.13;5070807;28;20214;-56
2023/05/23 01:41:08;;;;;;;7.18;4.15;;;;;;;12.68;100.00;64284.84;5071313;28;20193;-57
2023/05/23 01:43:34;;;;;;;7.57;4.85;;;;;;;12.64;100.00;64281.03;5069612;28;20667;-56
2023/05/23 01:46:01;;;;;;;5.67;4.73;;;;;;;12.70;100.00;64287.59;5070947;28;20254;-57
2023/05/23 01:48:27;;;;;;;7.43;5.60;;;;;;;12.63;100.00;64279.91;5071049;28;20355;-55
2023/05/23 01:50:55;;;;;;;5.82;4.47;;;;;;;12.63;100.00;64277.38;5069713;28;20189;-57
2023/05/23 01:53:22;;;;;;;7.87;5.10;;;;;;;12.76;100.00;64294.19;5071281;28;20201;-55
2023/05/23 01:55:48;;;;;;;6.53;4.88;;;;;;;12.77;100.00;64292.19;5071011;28;20185;-57
2023/05/23 01:58:13;;;;;;;6.57;4.93;;;;;;;13.01;100.00;64321.59;5070971;28;20197;-56
2023/05/23 02:00:39;;;;;;;6.15;4.93;;;;;;;12.79;100.00;64294.38;5070857;28;20184;-57
2023/05/23 02:03:05;;;;;;;8.00;5.70;;;;;;;12.60;100.00;64276.63;5070859;28;20209;-56
2023/05/23 02:05:30;;;;;;;5.75;5.05;;;;;;;12.61;100.00;64275.19;5070613;28;20185;-58
2023/05/23 02:07:55;;;;;;;7.07;4.95;;;;;;;12.34;100.00;64251.19;5070599;28;20189;-57
2023/05/23 02:10:21;;;;;;;8.98;5.00;;;;;;;12.28;100.00;64237.03;5070624;28;20303;-56
2023/05/23 02:12:47;;;;;;;8.33;4.70;;;;;;;12.36;100.00;64250.31;5069191;28;20185;-56
2023/05/23 02:15:13;;;;;;;9.07;5.23;;;;;;;12.49;100.00;64262.03;5069199;28;20543;-56
2023/05/23 02:17:38;;;;;;;7.10;4.90;;;;;;;12.67;100.00;64284.31;5070598;28;20192;-57
2023/05/23 02:20:05;;;;;;;6.50;4.67;;;;;;;12.51;100.00;64267.31;5070413;28;20299;-56
2023/05/23 02:22:30;;;;;;;9.18;4.90;;;;;;;12.55;100.00;64271.16;5070581;28;20330;-58
2023/05/23 02:24:56;;;;;;;5.88;4.70;;;;;;;12.58;100.00;64272.44;5069005;28;20724;-57
2023/05/23 02:27:22;;;;;;;7.63;4.60;;;;;;;12.45;100.00;64260.19;5070226;28;20200;-57
2023/05/23 02:29:48;;;;;;;8.63;4.37;;;;;;;12.38;100.00;64252.50;5070353;28;20260;-56
2023/05/23 02:32:13;;;;;;;7.37;4.10;;;;;;;12.32;100.00;64243.41;5070307;28;20224;-57
2023/05/23 02:34:39;;;;;;;4.95;3.72;;;;;;;12.31;100.00;64244.81;5069357;28;20305;-58
2023/05/23 02:37:04;;;;;;;7.23;3.40;;;;;;;12.10;100.00;64219.28;5070088;28;20250;-56
2023/05/23 02:39:30;;;;;;;3.57;2.90;;;;;;;11.92;100.00;64202.09;5070366;28;20644;-56
2023/05/23 02:41:55;;;;;;;6.07;2.87;;;;;;;11.81;100.00;64190.56;5070265;28;20197;-57
2023/05/23 02:44:21;;;;;;;4.87;2.33;;;;;;;11.66;100.00;64172.16;5070380;28;20810;-56
2023/05/23 02:46:46;;;;;;;3.40;2.30;;;;;;;11.41;100.00;64147.25;5070117;28;20192;-56
2023/05/23 02:49:11;;;;;;;3.40;2.67;;;;;;;11.33;100.00;64137.97;5070281;28;20287;-56
2023/05/23 02:51:37;;;;;;;4.20;2.77;;;;;;;11.26;100.00;64128.31;5069922;28;20655;-56
2023/05/23 02:54:02;;;;;;;3.40;2.50;;;;;;;11.30;100.00;64134.66;5070049;28;20222;-56
2023/05/23 02:56:28;;;;;;;6.20;2.30;;;;;;;11.18;100.00;64121.50;5070048;28;20212;-56
2023/05/23 02:58:53;;;;;;;2.53;2.33;;;;;;;11.19;100.00;64122.63;5069875;28;20216;-56
2023/05/23 03:01:19;;;;;;;2.77;2.50;;;;;;;11.21;100.00;64124.81;5070054;28;20693;-59
2023/05/23 03:03:44;;;;;;;3.43;2.40;;;;;;;11.09;100.00;64112.19;5070122;28;20646;-57
2023/05/23 03:06:13;;;;;;;2.00;1.90;;;;;;;11.08;100.00;64111.13;5069989;28;20224;-56
2023/05/23 03:08:42;;;;;;;3.03;2.10;;;;;;;11.01;100.00;64105.44;5070059;28;20213;-56
2023/05/23 03:11:07;;;;;;;4.90;2.00;;;;;;;11.22;100.00;64123.94;5069788;28;20193;-56
2023/05/23 03:13:40;;;;;;;3.10;2.13;;;;;;;11.06;100.00;64108.94;5070126;28;20277;-57
2023/05/23 03:16:05;;;;;;;4.47;2.00;;;;;;;11.10;100.00;64113.31;5069886;28;20617;-56
2023/05/23 03:18:31;;;;;;;4.47;2.10;;;;;;;11.07;100.00;64106.97;5069734;28;20277;-56
2023/05/23 03:20:56;;;;;;;2.40;2.00;;;;;;;10.95;100.00;64096.88;5069802;28;20551;-57
2023/05/23 03:23:22;;;;;;;2.33;1.97;;;;;;;10.79;100.00;64076.84;5069976;28;20652;-57
2023/05/23 03:25:48;;;;;;;2.77;2.10;;;;;;;10.81;100.00;64079.56;5069739;28;20330;-57
2023/05/23 03:28:14;;;;;;;5.67;2.17;;;;;;;10.85;100.00;64083.94;5069874;28;20269;-56
2023/05/23 03:30:39;;;;;;;3.27;1.90;;;;;;;10.88;100.00;64089.78;5069604;28;20637;-56
2023/05/23 03:33:05;;;;;;;2.67;2.00;;;;;;;10.85;100.00;64083.94;5069793;28;20756;-57
2023/05/23 03:35:31;;;;;;;2.67;2.10;;;;;;;10.96;100.00;64098.53;5069516;28;20196;-58
2023/05/23 03:37:57;;;;;;;2.93;1.93;;;;;;;11.03;100.00;64107.63;5069526;28;20280;-56
2023/05/23 03:40:22;;;;;;;5.10;2.13;;;;;;;11.05;100.00;64107.28;5069178;28;20213;-56
2023/05/23 03:43:00;;;;;;;2.10;1.90;;;;;;;11.23;100.00;64127.53;5069481;28;20734;-56
2023/05/23 03:45:26;;;;;;;3.37;1.93;;;;;;;11.25;100.00;64127.19;5071205;28;20196;-56
2023/05/23 03:47:51;;;;;;;2.63;1.87;;;;;;;11.41;100.00;64147.25;5072831;28;20184;-56
2023/05/23 03:50:17;;;;;;;3.77;1.60;;;;;;;11.30;100.00;64135.22;5073045;28;20204;-56
2023/05/23 03:52:42;;;;;;;4.27;1.93;;;;;;;11.22;100.00;64123.38;5071446;28;20193;-57
2023/05/23 03:55:10;;;;;;;2.20;2.00;;;;;;;11.30;100.00;64135.22;5072937;28;20300;-57
2023/05/23 03:57:35;;;;;;;2.07;1.87;;;;;;;11.18;100.00;64124.59;5072819;28;20185;-56
2023/05/23 04:00:05;;;;;;;7.43;1.97;;;;;;;11.11;100.00;64114.38;5072701;28;20568;-55
2023/05/23 04:02:30;;;;;;;2.23;2.03;;;;;;;11.28;100.00;64132.47;5072660;28;20257;-56
2023/05/23 04:04:55;;;;;;;4.93;2.10;;;;;;;11.43;100.00;64146.91;5072535;28;20229;-57
2023/05/23 04:07:22;;;;;;;4.50;1.93;;;;;;;11.52;100.00;64158.75;5072854;28;20192;-57
2023/05/23 04:09:47;;;;;;;2.70;2.13;;;;;;;11.51;100.00;64157.69;5072409;28;20232;-57
2023/05/23 04:12:14;;;;;;;4.97;2.47;;;;;;;11.78;100.00;64185.31;5072767;28;20203;-56
2023/05/23 04:14:39;;;;;;;3.70;2.40;;;;;;;11.69;100.00;64177.97;5072224;28;20266;-56
2023/05/23 04:17:05;;;;;;;5.43;2.47;;;;;;;11.71;100.00;64180.16;5072633;28;20229;-55
2023/05/23 04:19:30;;;;;;;3.30;2.60;;;;;;;11.63;100.00;64168.31;5072568;28;20217;-56
2023/05/23 04:21:56;;;;;;;3.43;2.63;;;;;;;11.53;100.00;64159.88;5072477;28;20188;-58
2023/05/23 04:24:21;;;;;;;4.73;2.40;;;;;;;11.47;100.00;64151.31;5072652;28;20216;-57
2023/05/23 04:26:46;;;;;;;5.10;2.67;;;;;;;11.36;100.00;64138.72;5072430;28;20189;-56
2023/05/23 04:29:12;;;;;;;6.83;2.30;;;;;;;11.39;100.00;64147.59;5072227;28;20774;-56
2023/05/23 04:31:38;;;;;;;3.63;2.50;;;;;;;11.75;100.00;64182.03;5072307;28;20230;-57
2023/05/23 04:34:03;;;;;;;2.70;2.50;;;;;;;11.61;100.00;64166.09;5072653;28;20215;-56
2023/05/23 04:36:29;;;;;;;4.53;2.77;;;;;;;11.74;100.00;64177.84;5072078;28;20227;-56
2023/05/23 04:38:55;;;;;;;3.90;3.20;;;;;;;11.74;100.00;64183.44;5071928;28;20674;-56
2023/05/23 04:41:23;;;;;;;5.33;3.07;;;;;;;11.77;100.00;64184.22;5087622;28;20260;-56
2023/05/23 04:43:53;;;;;;;5.50;3.53;;;;;;;12.22;100.00;64235.50;5072263;28;20204;-57
2023/05/23 04:46:21;;;;;;;4.40;3.40;;;;;;;12.22;100.00;64232.44;5071851;28;20205;-57
2023/05/23 04:48:47;;;;;;;5.17;4.00;;;;;;;12.27;100.00;64241.00;5072158;28;20219;-56
2023/05/23 04:51:13;;;;;;;5.67;4.13;;;;;;;12.08;100.00;64219.63;5070657;28;20687;-57
2023/05/23 04:53:39;;;;;;;6.07;4.23;;;;;;;12.04;100.00;64215.78;5072262;28;20208;-56
2023/05/23 04:56:07;;;;;;;6.40;4.90;;;;;;;12.39;100.00;64253.59;5071402;28;20240;-58
2023/05/23 04:58:33;;;;;;;6.70;4.50;;;;;;;12.32;100.00;64245.94;5072150;28;20639;-56
2023/05/23 05:00:58;;;;;;;8.23;4.23;;;;;;;12.32;100.00;64243.41;5071758;28;20224;-56
2023/05/23 05:03:24;;;;;;;4.87;4.10;;;;;;;12.51;100.00;64266.75;5071886;28;20660;-56
2023/05/23 05:05:49;;;;;;;5.17;4.50;;;;;;;12.46;100.00;64261.28;5071428;28;20268;-57
2023/05/23 05:08:18;;;;;;;5.53;4.17;;;;;;;12.73;100.00;64290.88;5069937;28;20657;-57
2023/05/23 05:10:44;;;;;;;8.13;5.07;;;;;;;12.81;100.00;64299.66;5071715;28;20278;-57
2023/05/23 05:13:09;;;;;;;8.33;5.20;;;;;;;12.72;100.00;64289.81;5071335;28;20683;-57
2023/05/23 05:15:35;;;;;;;8.63;5.27;;;;;;;12.72;100.00;64291.78;5087039;28;20193;-56
2023/05/23 05:18:07;;;;;;;8.17;6.00;;;;;;;12.97;100.00;64316.69;5071468;28;20200;-58
2023/05/23 05:20:33;;;;;;;8.77;5.07;;;;;;;12.93;100.00;64312.81;5071502;28;20197;-57
2023/05/23 05:23:01;;;;;;;9.20;6.13;;;;;;;12.90;100.00;64307.03;5071821;28;20680;-57
2023/05/23 05:25:30;;;;;;;9.13;6.37;;;;;;;12.92;100.00;64308.66;5071501;28;20193;-57
2023/05/23 05:27:56;;;;;;;12.57;7.60;;;;;;;12.85;100.00;64303.50;5071504;28;20200;-57
2023/05/23 05:30:22;;;;;;;14.33;8.90;;;;;;;12.76;100.00;64291.09;5071221;28;20192;-57
2023/05/23 05:32:48;;;;;;;13.47;9.43;;;;;;;12.83;100.00;64301.84;5071167;28;20764;-57
2023/05/23 05:35:13;;;;;;;15.37;9.40;;;;;;;12.84;100.00;64297.34;5071237;28;20181;-56
2023/05/23 05:37:39;;;;;;;14.97;9.73;;;;;;;12.77;100.00;64294.72;5070823;28;20257;-56
2023/05/23 05:40:07;;;;;;;21.93;10.20;;;;;;;12.91;100.00;64310.63;5071096;28;20611;-57
2023/05/23 05:42:33;;;;;;;12.00;8.87;;;;;;;12.66;100.00;64280.69;5069366;28;20199;-58
2023/05/23 05:44:58;;;;;;;15.20;9.77;;;;;;;12.88;100.00;64307.34;5071249;28;20208;-56
2023/05/23 05:47:24;;;;;;;17.70;9.80;;;;;;;12.84;100.00;64302.97;5071397;28;20196;-57
2023/05/23 05:49:50;;;;;;;17.43;10.70;;;;;;;12.98;100.00;64315.25;5071368;28;20697;-57
2023/05/23 05:52:15;;;;;;;16.90;10.50;;;;;;;13.06;100.00;64324.03;5086727;28;20184;-57
2023/05/23 05:54:41;;;;;;;13.50;10.37;;;;;;;13.21;100.00;64341.03;5071115;28;20598;-57
2023/05/23 05:57:06;;;;;;;16.70;10.77;;;;;;;13.26;100.00;64346.00;5071245;28;20610;-57
2023/05/23 05:59:32;;;;;;;14.87;10.47;;;;;;;13.30;100.00;64352.91;5070862;28;20231;-56
2023/05/23 06:01:57;;;;;;;18.23;10.23;;;;;;;13.36;100.00;64360.03;5069756;28;20197;-56
2023/05/23 06:04:23;;;;;;;20.23;11.80;;;;;;;13.00;100.00;64314.91;5071500;28;20209;-56
2023/05/23 06:06:48;;;;;;;19.90;14.10;;;;;;;13.05;100.00;64322.94;5070904;28;20224;-55
2023/05/23 06:09:13;;;;;;;23.17;14.37;;;;;;;12.92;100.00;64308.66;5069726;28;20225;-57
2023/05/23 06:11:39;;;;;;;25.13;14.83;;;;;;;12.77;100.00;64292.19;5071096;28;20189;-57
2023/05/23 06:14:06;;;;;;;23.33;15.07;;;;;;;12.86;100.00;64302.63;5071114;28;20655;-56
2023/05/23 06:16:31;;;;;;;24.63;15.60;;;;;;;12.75;100.00;64293.09;5071168;28;20189;-58
2023/05/23 06:18:57;;;;;;;23.10;16.23;;;;;;;12.90;100.00;64306.47;5070954;28;20307;-57
2023/05/23 06:21:23;;;;;;;20.43;13.57;;;;;;;13.14;100.00;64332.81;5070823;28;20729;-57
2023/05/23 06:23:48;;;;;;;22.87;13.87;;;;;;;13.34;100.00;64352.78;5071224;28;20204;-56
2023/05/23 06:26:14;;;;;;;20.83;13.85;;;;;;;13.39;100.00;64360.25;5070929;28;20218;-57
2023/05/23 06:28:39;;;;;;;20.17;13.87;;;;;;;13.40;100.00;64363.88;5071609;28;20232;-58
2023/05/23 06:31:04;;;;;;;24.60;14.20;;;;;;;13.28;100.00;64350.72;5070970;28;20228;-59
2023/05/23 06:33:31;;;;;;;23.00;15.67;;;;;;;13.52;100.00;64376.50;5070747;28;20244;-58
2023/05/23 06:35:56;;;;;;;22.80;14.38;;;;;;;13.69;100.00;64390.13;5070831;28;20212;-56
2023/05/23 06:38:21;;;;;;;24.03;14.17;;;;;;;13.89;100.00;64412.63;5070792;28;20205;-57
2023/05/23 06:40:47;;;;;;;23.08;14.93;;;;;;;14.07;100.00;64434.94;5070788;28;20189;-57
2023/05/23 06:43:13;;;;;;;22.03;14.37;;;;;;;14.10;100.00;64437.66;5086100;28;20273;-58
2023/05/23 06:45:39;;;;;;;20.58;14.57;;;;;;;14.00;100.00;64426.69;5069051;28;20275;-58
2023/05/23 06:48:04;;;;;;;21.45;14.63;;;;;;;14.00;100.00;64424.13;5070233;28;20212;-59
2023/05/23 06:50:30;;;;;;;21.48;14.63;;;;;;;14.05;100.00;64432.19;5070756;28;20639;-58
2023/05/23 06:52:55;;;;;;;25.15;14.45;;;;;;;14.03;100.00;64432.50;5070892;28;20619;-58
2023/05/23 06:55:22;;;;;;;27.23;15.45;;;;;;;14.19;100.00;64450.09;5069626;28;20196;-58
2023/05/23 06:57:50;;;;;;;22.95;15.13;;;;;;;14.30;100.00;64459.66;5068295;28;20597;-57
2023/05/23 07:00:17;;;;;;;22.95;14.35;;;;;;;14.50;100.00;64479.09;5069898;28;20239;-58
2023/05/23 07:02:44;;;;;;;19.55;13.68;;;;;;;14.62;100.00;64494.28;5068929;28;20204;-56
2023/05/23 07:05:09;;;;;;;20.15;14.30;;;;;;;14.81;100.00;64518.25;5069043;28;20610;-59
2023/05/23 07:07:35;;;;;;;22.15;13.43;;;;;;;15.05;100.00;64541.53;5070461;28;20268;-58
2023/05/23 07:10:00;;;;;;;19.23;14.30;;;;;;;15.08;100.00;64542.84;5070202;28;20686;-59
2023/05/23 07:12:26;;;;;;;19.58;13.93;;;;;;;15.20;100.00;64555.50;5070051;28;20283;-57
2023/05/23 07:14:51;;;;;;;24.13;13.90;;;;;;;15.46;100.00;64589.19;5070201;28;20302;-57
2023/05/23 07:17:16;;;;;;;28.17;15.65;;;;;;;15.61;100.00;64602.59;5069932;28;20651;-58
2023/05/23 07:19:42;;;;;;;21.40;15.00;;;;;;;15.61;100.00;64605.69;5070712;28;20219;-57
2023/05/23 07:22:07;;;;;;;22.75;14.20;;;;;;;15.55;100.00;64599.09;5073517;28;20188;-57
2023/05/23 07:24:33;;;;;;;23.38;12.98;;;;;;;15.56;100.00;64597.66;5073340;28;20258;-58
2023/05/23 07:26:58;;;;;;;27.25;14.82;;;;;;;15.62;100.00;64601.16;5073541;28;20697;-58
2023/05/23 07:29:23;;;;;;;19.65;13.73;;;;;;;15.77;100.00;64620.19;5073412;28;20626;-59
2023/05/23 07:31:49;;;;;;;22.80;13.95;;;;;;;15.80;100.00;64626.59;5073389;28;20195;-57
2023/05/23 07:34:14;;;;;;;19.85;13.05;;;;;;;15.89;100.00;64633.97;5073794;28;20209;-59
2023/05/23 07:36:41;;;;;;;19.98;13.20;;;;;;;16.17;100.00;64666.75;5073288;28;20189;-57
2023/05/23 07:39:07;;;;;;;18.25;12.00;;;;;;;16.13;100.00;64659.81;5073596;28;20216;-59
2023/05/23 07:41:32;;;;;;;17.63;12.48;;;;;;;16.17;100.00;64663.66;5073431;28;20631;-58
2023/05/23 07:43:57;;;;;;;21.50;12.15;;;;;;;16.46;100.00;64695.59;5073404;28;20205;-59
2023/05/23 07:46:23;;;;;;;25.80;12.18;;;;;;;16.62;100.00;64713.22;5073314;28;20188;-60
2023/05/23 07:48:48;;;;;;;19.33;11.30;;;;;;;16.70;100.00;64717.47;5073104;28;20205;-59
2023/05/23 07:51:14;;;;;;;20.02;11.70;;;;;;;16.74;100.00;64724.44;5073106;28;20188;-59
2023/05/23 07:53:40;;;;;;;17.02;11.75;;;;;;;16.66;100.00;64718.16;5073454;28;20720;-59
2023/05/23 07:56:06;;;;;;;18.73;10.90;;;;;;;16.62;100.00;64710.69;5073254;28;20181;-59
2023/05/23 07:58:31;;;;;;;17.13;11.18;;;;;;;16.64;100.00;64715.97;5073226;28;20209;-59
2023/05/23 08:00:59;;;;;;;16.25;10.60;;;;;;;16.81;100.00;64736.16;5072962;28;20189;-59
2023/05/23 08:03:24;;;;;;;18.27;10.88;;;;;;;17.00;100.00;64751.97;5073059;28;20212;-59
2023/05/23 08:05:50;;;;;;;16.05;9.82;;;;;;;17.00;100.00;64755.06;5073236;28;20542;-59
2023/05/23 08:08:15;;;;;;;19.35;10.10;;;;;;;17.15;100.00;64768.50;5072953;28;20228;-58
2023/05/23 08:10:41;;;;;;;15.43;10.18;;;;;;;17.29;100.00;64784.47;5073075;28;20669;-58
2023/05/23 08:13:09;;;;;;;15.88;10.82;;;;;;;17.29;100.00;64784.47;5072724;28;20813;-58
2023/05/23 08:15:34;;;;;;;17.30;9.82;;;;;;;17.42;100.00;64798.25;5072869;28;20701;-58
2023/05/23 08:17:59;;;;;;;16.88;10.32;;;;;;;17.48;100.00;64804.84;5073016;28;20196;-58
2023/05/23 08:20:29;;;;;;;18.40;10.30;;;;;;;17.57;100.00;64817.88;5072889;28;20215;-60
2023/05/23 08:22:59;;;;;;;13.98;9.40;;;;;;;17.76;100.00;64837.72;5073088;28;20193;-61
2023/05/23 08:25:29;;;;;;;13.13;9.35;;;;;;;17.71;100.00;64835.34;5072909;28;20200;-59
2023/05/23 08:27:56;;;;;;;15.07;9.27;;;;;;;17.79;100.00;64839.06;5072982;28;20189;-60
2023/05/23 08:30:22;;;;;;;11.20;9.55;;;;;;;17.91;100.00;64857.38;5072576;28;20667;-59
2023/05/23 08:32:48;;;;;;;14.65;10.18;;;;;;;18.01;100.00;64862.75;5071619;28;20200;-59
2023/05/23 08:35:13;;;;;;;16.40;11.10;;;;;;;18.30;100.00;64895.28;5072705;28;21094;-61
2023/05/23 08:37:39;;;;;;;18.08;10.30;;;;;;;18.18;100.00;64884.59;5088090;28;20609;-59
2023/05/23 08:40:08;;;;;;;13.95;10.07;;;;;;;18.21;100.00;64887.91;5072606;28;20296;-59
2023/05/23 08:42:33;;;;;;;11.43;9.25;;;;;;;18.44;100.00;64908.19;5072489;28;20195;-59
2023/05/23 08:44:59;;;;;;;15.20;10.00;;;;;;;18.75;100.00;64943.81;5072611;28;20291;-60
2023/05/23 08:47:25;;;;;;;19.27;10.38;;;;;;;18.80;100.00;64949.34;5072601;28;20548;-59
2023/05/23 08:49:54;;;;;;;15.88;9.65;;;;;;;18.71;100.00;64942.53;5072426;28;20242;-59
2023/05/23 08:52:23;;;;;;;16.30;9.55;;;;;;;18.77;100.00;64946.03;5072335;28;20359;-61
2023/05/23 08:54:49;;;;;;;12.57;8.50;;;;;;;18.81;100.00;64953.56;5072254;28;20217;-61
2023/05/23 08:57:16;;;;;;;9.85;7.82;;;;;;;18.89;100.00;64959.28;5072134;28;20221;-60
2023/05/23 08:59:42;;;;;;;15.80;9.20;;;;;;;19.23;100.00;64994.22;5072105;28;20311;-59
2023/05/23 09:02:12;;;;;;;10.95;7.72;;;;;;;19.48;99.72;65024.41;5072297;28;20224;-57
2023/05/23 09:04:38;;;;;;;13.25;6.90;;;;;;;19.57;94.10;65034.38;5072091;28;20213;-56
2023/05/23 09:07:04;;;;;;;10.13;7.50;;;;;;;19.68;91.63;65046.50;5072135;28;20181;-58
2023/05/23 09:09:29;;;;;;;12.07;6.82;;;;;;;19.75;95.18;65051.69;5071870;28;20295;-56
2023/05/23 09:11:58;;;;;;;8.65;5.97;;;;;;;19.67;95.50;65047.97;5071895;28;20610;-55
2023/05/23 09:14:24;;;;;;;12.77;6.65;;;;;;;19.96;90.31;65077.41;5087088;22;20316;-56
2023/05/23 09:16:49;;;;;;;9.75;6.28;;;;;;;19.95;89.21;65073.78;5071813;28;20231;-56
2023/05/23 09:19:14;;;;;;;14.02;7.20;;;;;;;20.15;95.86;65097.88;5071827;28;20209;-56
2023/05/23 09:21:44;;;;;;;11.75;6.43;;;;;;;20.22;89.70;65103.03;5071785;28;20736;-57
2023/05/23 09:24:10;;;;;;;7.68;5.32;;;;;;;20.31;76.46;65115.00;5070651;28;20209;-58
2023/05/23 09:26:36;;;;;;;6.88;4.70;;;;;;;19.86;73.46;65066.38;5071820;28;20193;-55
2023/05/23 09:29:05;;;;;;;8.68;4.38;;;;;;;20.16;72.13;65098.97;5072006;28;20213;-57
2023/05/23 09:31:31;;;;;;;6.05;3.65;;;;;;;20.28;66.78;65111.69;5071907;28;20208;-57
2023/05/23 09:33:58;;;;;;;5.10;4.00;;;;;;;20.49;65.97;65134.91;5071778;28;20223;-56
2023/05/23 09:36:28;;;;;;;7.68;4.10;;;;;;;20.68;62.05;65155.91;5071651;28;20224;-56
2023/05/23 09:38:53;;;;;;;9.88;3.50;;;;;;;20.74;64.97;65165.09;5071459;28;20217;-56
2023/05/23 09:41:20;;;;;;;5.30;3.30;;;;;;;20.79;68.39;65166.03;5071627;28;20196;-56
2023/05/23 09:43:51;;;;;;;4.20;3.28;;;;;;;20.92;65.60;65185.00;5071154;28;20585;-59
2023/05/23 09:46:17;;;;;;;6.05;3.90;;;;;;;20.98;61.68;65191.06;5070138;28;20193;-58
2023/05/23 09:48:50;;;;;;;6.20;3.55;;;;;;;21.07;68.21;65195.91;5071284;28;20211;-59
2023/05/23 09:51:21;;;;;;;3.97;3.30;;;;;;;21.29;61.54;65220.78;5071309;28;20193;-63
2023/05/23 09:53:49;;;;;;;4.40;3.05;;;;;;;21.37;61.61;65231.66;5071520;28;20213;-58
2023/05/23 09:56:18;;;;;;;4.63;3.13;;;;;;;21.67;64.69;65265.38;5071036;28;20192;-62
2023/05/23 09:58:47;;;;;;;3.83;3.13;;;;;;;22.00;64.99;65300.81;5070875;28;20286;-58
2023/05/23 10:01:13;;;;;;;4.90;3.30;;;;;;;22.23;64.30;65324.25;5069764;28;20192;-57
2023/05/23 10:03:49;;;;;;;5.93;3.03;;;;;;;22.20;55.86;65322.97;5071176;28;20204;-57
2023/05/23 10:06:34;;;;;;;3.22;2.92;;;;;;;22.43;61.04;65348.41;5069594;28;20196;-58
2023/05/23 10:09:07;;;;;;;3.63;2.95;;;;;;;22.63;55.91;65370.56;5071196;28;20251;-57
2023/05/23 10:11:32;;;;;;;3.83;3.25;;;;;;;22.52;58.72;65358.38;5070673;28;20200;-58
2023/05/23 10:14:01;;;;;;;7.25;3.15;;;;;;;22.85;62.30;65394.94;5071062;28;20224;-58
2023/05/23 10:16:53;;;;;;;3.15;2.83;;;;;;;23.24;58.63;65435.00;5070862;28;20177;-57
2023/05/23 10:19:33;;;;;;;5.22;3.08;;;;;;;23.19;56.56;65432.06;5050291;28;20240;-58
2023/05/23 10:22:02;;;;;;;5.20;3.15;;;;;;;23.40;56.65;65454.78;5070725;28;20176;-58
2023/05/23 10:24:28;;;;;;;7.85;3.22;;;;;;;23.52;55.76;65468.06;5070838;28;20265;-58
2023/05/23 10:26:54;;;;;;;7.47;3.22;;;;;;;23.46;52.33;65461.97;5070696;28;20311;-56
2023/05/23 10:29:24;;;;;;;4.00;2.53;;;;;;;23.29;50.53;65443.66;5070748;28;20534;-57
2023/05/23 10:31:51;;;;;;;4.68;2.67;;;;;;;23.09;49.40;65421.50;5070085;28;20188;-57
2023/05/23 10:34:39;;;;;;;5.75;3.15;;;;;;;23.14;50.58;65427.06;5070762;28;20239;-58
2023/05/23 10:37:06;;;;;;;6.38;3.25;;;;;;;23.52;52.74;65468.06;5070743;28;20275;-55
2023/05/23 10:39:44;;;;;;;8.05;3.33;;;;;;;23.27;50.34;65441.44;5070173;28;20285;-56
2023/05/23 10:42:16;;;;;;;5.85;2.85;;;;;;;23.37;49.74;65449.44;5070354;28;20192;-58
2023/05/23 10:44:41;;;;;;;3.75;3.10;;;;;;;23.62;46.46;65479.69;5070469;28;20309;-56
2023/05/23 10:47:06;;;;;;;4.75;3.10;;;;;;;23.90;50.31;65508.16;5070324;28;20249;-57
2023/05/23 10:49:44;;;;;;;4.95;3.22;;;;;;;23.83;47.97;65502.44;5068970;28;20209;-56
2023/05/23 10:52:12;;;;;;;2.95;2.60;;;;;;;24.17;48.92;65540.13;5070304;28;20184;-55
2023/05/23 10:54:45;;;;;;;6.45;2.72;;;;;;;24.55;47.56;65579.13;5069580;28;20207;-57
2023/05/23 10:57:15;;;;;;;4.85;3.03;;;;;;;24.48;43.75;65574.53;5070194;28;20611;-56
2023/05/23 10:59:41;;;;;;;3.65;3.20;;;;;;;24.44;44.97;65569.53;5070011;28;20763;-56
2023/05/23 11:02:14;;;;;;;4.80;2.95;;;;;;;24.89;47.52;65620.00;5070156;28;20233;-59
2023/05/23 11:04:41;;;;;;;6.20;3.45;;;;;;;25.20;45.74;65653.31;5070112;28;20216;-62
2023/05/23 11:07:30;;;;;;;6.07;3.15;;;;;;;25.29;46.82;65660.72;5067307;28;20185;-61
2023/05/23 11:10:09;;;;;;;4.22;3.08;;;;;;;25.32;44.95;65664.59;5069982;28;20244;-62
2023/05/23 11:12:39;;;;;;;10.75;3.60;;;;;;;25.42;45.30;65675.72;5069956;28;20188;-61
2023/05/23 11:15:17;;;;;;;3.95;2.67;;;;;;;24.98;42.37;65624.28;5070005;28;20212;-60
2023/05/23 11:17:53;;;;;;;7.35;2.92;;;;;;;25.12;42.95;65642.41;5070177;28;20216;-61
2023/05/23 11:20:27;;;;;;;3.53;3.05;;;;;;;25.15;42.70;65643.13;5069693;28;20220;-59
2023/05/23 11:22:57;;;;;;;4.30;2.78;;;;;;;25.42;41.77;65673.13;5070304;28;20181;-59